Terminal Aerodrome Forecast
Issued by NWS

Home | Current Version | Previous Version | Text Only | Print | Product List | Glossary On
Versions: 1 2 3 4 5 6 7 8 9 10 11 12 13 14 15 16
000
FTUS41 KCLE 300500 RRA
TAFFDY
TAF
KFDY 300543Z 3006/0106 22003KT P6SM BKN080 OVC250
     FM300800 28006KT P6SM SCT015 OVC080
      TEMPO 3010/3012 5SM -RA BR OVC015
     FM301200 32006KT P6SM OVC006
      TEMPO 3012/3014 4SM BR
     FM301700 36006KT P6SM OVC015
     FM302100 02006KT P6SM OVC020=

USA.gov is the U.S. government's official web portal to all federal, state and local government web resources and services.